sensor_id;sensor_type;location;lat;lon;timestamp;pressure;altitude;pressure_sealevel;temperature;humidity
19576;BME280;41589;51.196;7.074;2022-09-09T00:00:43;98328.66;;;18.69;87.10
19576;BME280;41589;51.196;7.074;2022-09-09T00:11:04;98321.88;;;18.54;86.87
19576;BME280;41589;51.196;7.074;2022-09-09T00:16:15;98305.53;;;18.54;89.50
19576;BME280;41589;51.196;7.074;2022-09-09T00:21:18;98303.31;;;18.41;86.40
19576;BME280;41589;51.196;7.074;2022-09-09T00:26:26;98307.25;;;18.38;87.60
19576;BME280;41589;51.196;7.074;2022-09-09T00:31:31;98298.25;;;18.34;86.39
19576;BME280;41589;51.196;7.074;2022-09-09T00:36:32;98301.69;;;18.27;86.21
19576;BME280;41589;51.196;7.074;2022-09-09T00:52:31;98298.25;;;18.34;90.09
19576;BME280;41589;51.196;7.074;2022-09-09T00:57:36;98297.41;;;18.39;87.13
19576;BME280;41589;51.196;7.074;2022-09-09T01:07:47;98290.34;;;18.46;88.04
19576;BME280;41589;51.196;7.074;2022-09-09T01:12:51;98293.44;;;18.48;87.74
19576;BME280;41589;51.196;7.074;2022-09-09T01:18:13;98290.81;;;18.50;88.96
19576;BME280;41589;51.196;7.074;2022-09-09T01:29:11;98290.94;;;18.39;87.66
19576;BME280;41589;51.196;7.074;2022-09-09T01:34:18;98290.75;;;18.31;86.78
19576;BME280;41589;51.196;7.074;2022-09-09T01:39:21;98288.69;;;18.32;86.30
19576;BME280;41589;51.196;7.074;2022-09-09T01:44:30;98286.91;;;18.29;86.12
19576;BME280;41589;51.196;7.074;2022-09-09T01:49:31;98291.16;;;18.22;85.46
19576;BME280;41589;51.196;7.074;2022-09-09T01:54:36;98294.91;;;18.11;85.23
19576;BME280;41589;51.196;7.074;2022-09-09T02:00:05;98288.16;;;18.09;88.11
19576;BME280;41589;51.196;7.074;2022-09-09T02:05:38;98288.53;;;18.00;86.87
19576;BME280;41589;51.196;7.074;2022-09-09T02:11:07;98296.91;;;17.92;87.23
19576;BME280;41589;51.196;7.074;2022-09-09T02:16:21;98291.50;;;17.88;85.05
19576;BME280;41589;51.196;7.074;2022-09-09T02:21:27;98300.28;;;17.91;85.08
19576;BME280;41589;51.196;7.074;2022-09-09T02:26:29;98302.59;;;17.92;84.56
19576;BME280;41589;51.196;7.074;2022-09-09T02:31:47;98287.84;;;17.94;86.29
19576;BME280;41589;51.196;7.074;2022-09-09T02:36:58;98302.25;;;18.01;85.06
19576;BME280;41589;51.196;7.074;2022-09-09T02:42:00;98294.41;;;18.07;84.88
19576;BME280;41589;51.196;7.074;2022-09-09T02:57:37;98291.38;;;18.00;84.05
19576;BME280;41589;51.196;7.074;2022-09-09T03:02:39;98290.25;;;18.08;84.85
19576;BME280;41589;51.196;7.074;2022-09-09T03:07:41;98284.56;;;18.08;84.11
19576;BME280;41589;51.196;7.074;2022-09-09T03:12:43;98283.31;;;18.04;83.14
19576;BME280;41589;51.196;7.074;2022-09-09T03:17:47;98282.25;;;18.07;83.89
19576;BME280;41589;51.196;7.074;2022-09-09T03:22:48;98274.25;;;18.05;83.27
19576;BME280;41589;51.196;7.074;2022-09-09T03:27:49;98273.06;;;17.95;83.24
19576;BME280;41589;51.196;7.074;2022-09-09T03:32:50;98271.44;;;18.00;83.50
19576;BME280;41589;51.196;7.074;2022-09-09T03:37:51;98264.97;;;17.99;83.63
19576;BME280;41589;51.196;7.074;2022-09-09T03:42:52;98269.91;;;17.99;83.37
19576;BME280;41589;51.196;7.074;2022-09-09T03:47:53;98279.28;;;17.94;83.06
19576;BME280;41589;51.196;7.074;2022-09-09T03:52:54;98267.41;;;17.89;82.88
19576;BME280;41589;51.196;7.074;2022-09-09T03:57:56;98267.91;;;17.94;83.63
19576;BME280;41589;51.196;7.074;2022-09-09T04:02:57;98274.91;;;17.93;83.73
19576;BME280;41589;51.196;7.074;2022-09-09T04:07:58;98274.91;;;17.93;83.79
19576;BME280;41589;51.196;7.074;2022-09-09T04:12:58;98275.44;;;17.91;82.67
19576;BME280;41589;51.196;7.074;2022-09-09T04:18:00;98275.44;;;17.91;83.44
19576;BME280;41589;51.196;7.074;2022-09-09T04:23:01;98270.75;;;17.94;83.58
19576;BME280;41589;51.196;7.074;2022-09-09T04:28:02;98274.81;;;17.98;83.28
19576;BME280;41589;51.196;7.074;2022-09-09T04:33:03;98275.06;;;18.00;83.42
19576;BME280;41589;51.196;7.074;2022-09-09T04:38:05;98280.41;;;18.09;83.42
19576;BME280;41589;51.196;7.074;2022-09-09T04:43:08;98281.16;;;18.10;82.87
19576;BME280;41589;51.196;7.074;2022-09-09T04:48:09;98280.66;;;18.11;82.86
19576;BME280;41589;51.196;7.074;2022-09-09T04:53:15;98278.31;;;18.10;82.62
19576;BME280;41589;51.196;7.074;2022-09-09T04:58:16;98283.19;;;18.15;82.65
19576;BME280;41589;51.196;7.074;2022-09-09T05:03:17;98287.13;;;18.12;82.34
19576;BME280;41589;51.196;7.074;2022-09-09T05:08:18;98292.63;;;18.04;81.77
19576;BME280;41589;51.196;7.074;2022-09-09T05:13:18;98289.47;;;18.08;82.14
19576;BME280;41589;51.196;7.074;2022-09-09T05:18:19;98284.56;;;18.08;82.11
19576;BME280;41589;51.196;7.074;2022-09-09T05:23:20;98279.63;;;18.09;81.81
19576;BME280;41589;51.196;7.074;2022-09-09T05:28:21;98271.09;;;18.09;82.31
19576;BME280;41589;51.196;7.074;2022-09-09T05:33:22;98271.81;;;18.15;82.55
19576;BME280;41589;51.196;7.074;2022-09-09T05:38:23;98269.63;;;18.21;81.71
19576;BME280;41589;51.196;7.074;2022-09-09T05:43:26;98263.25;;;18.15;81.15
19576;BME280;41589;51.196;7.074;2022-09-09T05:48:28;98271.03;;;18.14;81.20
19576;BME280;41589;51.196;7.074;2022-09-09T05:53:30;98271.94;;;18.04;80.70
19576;BME280;41589;51.196;7.074;2022-09-09T05:58:38;98275.81;;;18.01;81.22
19576;BME280;41589;51.196;7.074;2022-09-09T06:03:43;98285.63;;;18.05;81.82
19576;BME280;41589;51.196;7.074;2022-09-09T06:09:09;98288.25;;;18.03;81.71
19576;BME280;41589;51.196;7.074;2022-09-09T06:14:11;98284.63;;;18.03;81.74
19576;BME280;41589;51.196;7.074;2022-09-09T06:19:13;98296.78;;;18.03;81.76
19576;BME280;41589;51.196;7.074;2022-09-09T06:24:16;98285.41;;;18.03;81.53
19576;BME280;41589;51.196;7.074;2022-09-09T06:29:20;98287.41;;;18.08;81.94
19576;BME280;41589;51.196;7.074;2022-09-09T06:34:20;98285.84;;;18.07;81.61
19576;BME280;41589;51.196;7.074;2022-09-09T06:39:24;98293.31;;;18.10;81.36
19576;BME280;41589;51.196;7.074;2022-09-09T06:44:26;98288.94;;;18.09;81.19
19576;BME280;41589;51.196;7.074;2022-09-09T06:49:27;98293.31;;;18.10;80.99
19576;BME280;41589;51.196;7.074;2022-09-09T06:54:35;98295.94;;;18.08;82.29
19576;BME280;41589;51.196;7.074;2022-09-09T06:59:44;98298.19;;;18.15;81.00
19576;BME280;41589;51.196;7.074;2022-09-09T07:04:45;98301.75;;;18.22;80.70
19576;BME280;41589;51.196;7.074;2022-09-09T07:09:52;98294.91;;;18.30;81.48
19576;BME280;41589;51.196;7.074;2022-09-09T07:14:56;98298.38;;;18.48;81.43
19576;BME280;41589;51.196;7.074;2022-09-09T07:20:00;98303.09;;;18.64;80.54
19576;BME280;41589;51.196;7.074;2022-09-09T07:25:01;98302.22;;;19.07;80.78
19576;BME280;41589;51.196;7.074;2022-09-09T07:30:05;98310.69;;;19.31;80.03
19576;BME280;41589;51.196;7.074;2022-09-09T07:40:11;98318.53;;;19.25;78.52
19576;BME280;41589;51.196;7.074;2022-09-09T07:45:14;98310.06;;;19.19;76.49
19576;BME280;41589;51.196;7.074;2022-09-09T07:50:15;98321.72;;;19.21;76.94
19576;BME280;41589;51.196;7.074;2022-09-09T07:55:16;98329.16;;;19.24;76.14
19576;BME280;41589;51.196;7.074;2022-09-09T08:00:25;98329.03;;;19.36;77.05
19576;BME280;41589;51.196;7.074;2022-09-09T08:05:31;98325.94;;;19.66;76.70
19576;BME280;41589;51.196;7.074;2022-09-09T08:11:12;98334.44;;;19.84;76.75
19576;BME280;41589;51.196;7.074;2022-09-09T08:16:15;98331.81;;;19.86;74.64
19576;BME280;41589;51.196;7.074;2022-09-09T08:21:19;98330.28;;;19.99;74.49
19576;BME280;41589;51.196;7.074;2022-09-09T08:26:29;98327.50;;;20.12;74.80
19576;BME280;41589;51.196;7.074;2022-09-09T08:31:38;98334.31;;;20.22;74.95
19576;BME280;41589;51.196;7.074;2022-09-09T08:36:42;98331.25;;;20.20;72.79
19576;BME280;41589;51.196;7.074;2022-09-09T08:47:28;98336.63;;;20.24;73.08
19576;BME280;41589;51.196;7.074;2022-09-09T08:52:49;98336.75;;;20.44;74.10
19576;BME280;41589;51.196;7.074;2022-09-09T08:57:53;98328.38;;;20.60;71.47
19576;BME280;41589;51.196;7.074;2022-09-09T09:13:47;98344.09;;;20.27;69.98
19576;BME280;41589;51.196;7.074;2022-09-09T09:18:53;98346.41;;;20.28;68.97
19576;BME280;41589;51.196;7.074;2022-09-09T09:23:59;98352.53;;;20.19;68.67
19576;BME280;41589;51.196;7.074;2022-09-09T09:29:14;98341.47;;;20.42;69.12
19576;BME280;41589;51.196;7.074;2022-09-09T09:34:16;98344.66;;;20.38;66.41
19576;BME280;41589;51.196;7.074;2022-09-09T09:39:32;98345.19;;;20.50;68.11
19576;BME280;41589;51.196;7.074;2022-09-09T09:44:41;98340.69;;;20.55;63.86
19576;BME280;41589;51.196;7.074;2022-09-09T09:49:56;98351.78;;;20.71;64.50
19576;BME280;41589;51.196;7.074;2022-09-09T09:55:05;98346.75;;;20.64;62.73
19576;BME280;41589;51.196;7.074;2022-09-09T10:00:15;98347.94;;;20.56;61.51
19576;BME280;41589;51.196;7.074;2022-09-09T10:05:29;98348.81;;;20.51;62.32
19576;BME280;41589;51.196;7.074;2022-09-09T10:10:39;98347.69;;;20.80;63.18
19576;BME280;41589;51.196;7.074;2022-09-09T10:31:26;98336.81;;;21.05;60.90
19576;BME280;41589;51.196;7.074;2022-09-09T10:36:35;98334.81;;;21.55;61.39
19576;BME280;41589;51.196;7.074;2022-09-09T10:42:06;98329.78;;;21.82;63.17
19576;BME280;41589;51.196;7.074;2022-09-09T10:52:17;98324.72;;;21.96;59.15
19576;BME280;41589;51.196;7.074;2022-09-09T11:02:30;98320.19;;;22.00;58.53
19576;BME280;41589;51.196;7.074;2022-09-09T11:08:13;98315.78;;;21.99;59.52
19576;BME280;41589;51.196;7.074;2022-09-09T11:13:23;98320.03;;;22.06;60.10
19576;BME280;41589;51.196;7.074;2022-09-09T11:18:29;98310.31;;;22.09;57.33
19576;BME280;41589;51.196;7.074;2022-09-09T11:23:44;98308.63;;;22.13;58.96
19576;BME280;41589;51.196;7.074;2022-09-09T11:44:53;98309.94;;;21.63;56.95
19576;BME280;41589;51.196;7.074;2022-09-09T11:50:40;98331.34;;;21.49;57.83
19576;BME280;41589;51.196;7.074;2022-09-09T11:55:33;98330.31;;;20.91;59.52
19576;BME280;41589;51.196;7.074;2022-09-09T12:00:41;98326.34;;;20.81;61.60
19576;BME280;41589;51.196;7.074;2022-09-09T12:05:45;98323.88;;;21.12;63.55
19576;BME280;41589;51.196;7.074;2022-09-09T12:10:54;98316.41;;;21.09;62.73
19576;BME280;41589;51.196;7.074;2022-09-09T12:15:57;98327.34;;;20.97;61.57
19576;BME280;41589;51.196;7.074;2022-09-09T12:21:06;98320.09;;;20.96;61.30
19576;BME280;41589;51.196;7.074;2022-09-09T12:37:06;98320.41;;;20.79;60.33
19576;BME280;41589;51.196;7.074;2022-09-09T12:42:20;98327.56;;;20.99;61.04
19576;BME280;41589;51.196;7.074;2022-09-09T12:47:30;98328.53;;;21.15;59.46
19576;BME280;41589;51.196;7.074;2022-09-09T12:52:35;98321.88;;;21.20;59.91
19576;BME280;41589;51.196;7.074;2022-09-09T12:57:38;98317.91;;;21.23;61.50
19576;BME280;41589;51.196;7.074;2022-09-09T13:02:47;98290.50;;;21.48;63.73
19576;BME280;41589;51.196;7.074;2022-09-09T13:07:48;98289.56;;;21.32;61.50
19576;BME280;41589;51.196;7.074;2022-09-09T13:12:49;98307.22;;;21.23;61.47
19576;BME280;41589;51.196;7.074;2022-09-09T13:17:54;98344.00;;;20.72;62.22
19576;BME280;41589;51.196;7.074;2022-09-09T13:22:55;98340.63;;;19.88;65.45
19576;BME280;41589;51.196;7.074;2022-09-09T13:28:01;98324.88;;;19.69;68.94
19576;BME280;41589;51.196;7.074;2022-09-09T13:33:22;98322.69;;;19.88;71.47
19576;BME280;41589;51.196;7.074;2022-09-09T13:38:28;98315.44;;;19.87;71.06
19576;BME280;41589;51.196;7.074;2022-09-09T13:43:44;98311.06;;;19.86;72.18
19576;BME280;41589;51.196;7.074;2022-09-09T13:54:10;98300.25;;;20.11;72.31
19576;BME280;41589;51.196;7.074;2022-09-09T13:59:14;98290.56;;;20.54;73.70
19576;BME280;41589;51.196;7.074;2022-09-09T14:04:15;98290.16;;;20.97;72.73
19576;BME280;41589;51.196;7.074;2022-09-09T14:09:17;98285.38;;;21.13;72.39
19576;BME280;41589;51.196;7.074;2022-09-09T14:14:17;98272.28;;;21.38;72.62
19576;BME280;41589;51.196;7.074;2022-09-09T14:19:18;98273.88;;;21.47;70.36
19576;BME280;41589;51.196;7.074;2022-09-09T14:24:19;98286.66;;;21.25;69.05
19576;BME280;41589;51.196;7.074;2022-09-09T14:29:23;98287.53;;;21.20;70.14
19576;BME280;41589;51.196;7.074;2022-09-09T14:34:25;98275.69;;;21.16;69.21
19576;BME280;41589;51.196;7.074;2022-09-09T14:39:29;98285.50;;;21.07;69.26
19576;BME280;41589;51.196;7.074;2022-09-09T14:44:29;98280.84;;;20.83;69.47
19576;BME280;41589;51.196;7.074;2022-09-09T14:49:29;98276.81;;;20.65;70.55
19576;BME280;41589;51.196;7.074;2022-09-09T14:54:31;98273.88;;;20.44;71.11
19576;BME280;41589;51.196;7.074;2022-09-09T14:59:32;98272.88;;;20.15;70.87
19576;BME280;41589;51.196;7.074;2022-09-09T15:04:32;98296.47;;;19.89;71.56
19576;BME280;41589;51.196;7.074;2022-09-09T15:09:33;98299.84;;;19.75;72.55
19576;BME280;41589;51.196;7.074;2022-09-09T15:14:33;98322.44;;;19.59;73.09
19576;BME280;41589;51.196;7.074;2022-09-09T15:19:36;98323.19;;;19.28;71.57
19576;BME280;41589;51.196;7.074;2022-09-09T15:24:37;98326.50;;;18.94;71.84
19576;BME280;41589;51.196;7.074;2022-09-09T15:29:38;98330.75;;;18.88;71.83
19576;BME280;41589;51.196;7.074;2022-09-09T15:34:39;98326.75;;;18.78;72.19
19576;BME280;41589;51.196;7.074;2022-09-09T15:39:40;98319.88;;;18.86;72.61
19576;BME280;41589;51.196;7.074;2022-09-09T15:44:41;98314.97;;;19.06;73.09
19576;BME280;41589;51.196;7.074;2022-09-09T15:49:42;98312.00;;;19.11;72.98
19576;BME280;41589;51.196;7.074;2022-09-09T15:54:43;98304.22;;;19.12;73.58
19576;BME280;41589;51.196;7.074;2022-09-09T15:59:48;98304.16;;;19.17;74.19
19576;BME280;41589;51.196;7.074;2022-09-09T16:04:54;98318.81;;;19.27;74.58
19576;BME280;41589;51.196;7.074;2022-09-09T16:09:54;98325.00;;;19.25;74.84
19576;BME280;41589;51.196;7.074;2022-09-09T16:14:54;98327.97;;;19.20;75.25
19576;BME280;41589;51.196;7.074;2022-09-09T16:19:55;98318.16;;;19.15;74.72
19576;BME280;41589;51.196;7.074;2022-09-09T16:24:57;98316.41;;;19.12;75.79
19576;BME280;41589;51.196;7.074;2022-09-09T16:29:57;98318.09;;;19.21;76.18
19576;BME280;41589;51.196;7.074;2022-09-09T16:34:58;98313.38;;;19.23;76.26
19576;BME280;41589;51.196;7.074;2022-09-09T16:39:58;98318.47;;;19.30;76.68
19576;BME280;41589;51.196;7.074;2022-09-09T16:44:59;98326.59;;;19.26;76.00
19576;BME280;41589;51.196;7.074;2022-09-09T16:49:59;98325.16;;;19.14;76.11
19576;BME280;41589;51.196;7.074;2022-09-09T16:55:00;98322.78;;;19.18;76.48
19576;BME280;41589;51.196;7.074;2022-09-09T17:00:00;98323.84;;;19.15;76.37
19576;BME280;41589;51.196;7.074;2022-09-09T17:05:01;98330.97;;;19.09;76.31
19576;BME280;41589;51.196;7.074;2022-09-09T17:10:01;98337.22;;;19.07;76.73
19576;BME280;41589;51.196;7.074;2022-09-09T17:15:05;98343.00;;;19.01;76.57
19576;BME280;41589;51.196;7.074;2022-09-09T17:20:06;98342.38;;;18.90;76.27
19576;BME280;41589;51.196;7.074;2022-09-09T17:25:07;98341.16;;;18.85;76.19
19576;BME280;41589;51.196;7.074;2022-09-09T17:30:08;98347.38;;;18.84;76.04
19576;BME280;41589;51.196;7.074;2022-09-09T17:35:09;98359.25;;;18.88;76.28
19576;BME280;41589;51.196;7.074;2022-09-09T17:40:10;98347.63;;;18.86;76.18
19576;BME280;41589;51.196;7.074;2022-09-09T17:45:10;98338.91;;;18.78;75.70
19576;BME280;41589;51.196;7.074;2022-09-09T17:50:11;98345.03;;;18.63;75.57
19576;BME280;41589;51.196;7.074;2022-09-09T17:55:13;98346.44;;;18.57;75.63
19576;BME280;41589;51.196;7.074;2022-09-09T18:00:14;98356.84;;;18.54;75.73
19576;BME280;41589;51.196;7.074;2022-09-09T18:05:17;98368.25;;;18.54;75.83
19576;BME280;41589;51.196;7.074;2022-09-09T18:10:21;98373.00;;;18.40;75.54
19576;BME280;41589;51.196;7.074;2022-09-09T18:15:27;98384.47;;;18.35;76.02
19576;BME280;41589;51.196;7.074;2022-09-09T18:20:28;98384.59;;;18.24;76.05
19576;BME280;41589;51.196;7.074;2022-09-09T18:25:28;98387.69;;;18.26;76.24
19576;BME280;41589;51.196;7.074;2022-09-09T18:30:29;98377.06;;;18.26;76.41
19576;BME280;41589;51.196;7.074;2022-09-09T18:35:36;98380.69;;;18.27;76.50
19576;BME280;41589;51.196;7.074;2022-09-09T18:40:37;98380.44;;;18.25;76.05
19576;BME280;41589;51.196;7.074;2022-09-09T18:45:38;98382.22;;;18.28;76.21
19576;BME280;41589;51.196;7.074;2022-09-09T18:50:47;98390.72;;;18.33;76.25
19576;BME280;41589;51.196;7.074;2022-09-09T18:55:57;98397.19;;;18.34;76.55
19576;BME280;41589;51.196;7.074;2022-09-09T19:00:59;98405.66;;;18.39;75.93
19576;BME280;41589;51.196;7.074;2022-09-09T19:06:22;98419.13;;;18.44;77.08
19576;BME280;41589;51.196;7.074;2022-09-09T19:11:25;98411.34;;;18.45;75.96
19576;BME280;41589;51.196;7.074;2022-09-09T19:16:29;98408.25;;;18.43;75.69
19576;BME280;41589;51.196;7.074;2022-09-09T19:21:34;98409.59;;;18.36;75.84
19576;BME280;41589;51.196;7.074;2022-09-09T19:26:43;98413.97;;;18.37;76.12
19576;BME280;41589;51.196;7.074;2022-09-09T19:31:46;98415.59;;;18.33;75.60
19576;BME280;41589;51.196;7.074;2022-09-09T19:36:47;98429.09;;;18.27;76.02
19576;BME280;41589;51.196;7.074;2022-09-09T19:41:47;98429.81;;;18.33;75.78
19576;BME280;41589;51.196;7.074;2022-09-09T19:46:49;98426.13;;;18.38;76.08
19576;BME280;41589;51.196;7.074;2022-09-09T19:51:50;98441.91;;;18.39;75.66
19576;BME280;41589;51.196;7.074;2022-09-09T19:56:50;98432.91;;;18.35;75.83
19576;BME280;41589;51.196;7.074;2022-09-09T20:01:51;98440.91;;;18.36;75.82
19576;BME280;41589;51.196;7.074;2022-09-09T20:06:51;98446.16;;;18.32;75.55
19576;BME280;41589;51.196;7.074;2022-09-09T20:11:52;98445.66;;;18.28;75.65
19576;BME280;41589;51.196;7.074;2022-09-09T20:16:53;98447.16;;;18.35;75.67
19576;BME280;41589;51.196;7.074;2022-09-09T20:21:59;98456.69;;;18.43;75.67
19576;BME280;41589;51.196;7.074;2022-09-09T20:27:00;98465.94;;;18.49;75.22
19576;BME280;41589;51.196;7.074;2022-09-09T20:32:01;98468.31;;;18.45;75.29
19576;BME280;41589;51.196;7.074;2022-09-09T20:37:02;98459.84;;;18.34;75.18
19576;BME280;41589;51.196;7.074;2022-09-09T20:42:04;98466.50;;;18.42;75.39
19576;BME280;41589;51.196;7.074;2022-09-09T20:47:05;98469.88;;;18.46;75.11
19576;BME280;41589;51.196;7.074;2022-09-09T20:52:06;98466.50;;;18.42;74.96
19576;BME280;41589;51.196;7.074;2022-09-09T20:57:06;98471.94;;;18.40;74.91
19576;BME280;41589;51.196;7.074;2022-09-09T21:02:08;98457.59;;;18.27;74.86
19576;BME280;41589;51.196;7.074;2022-09-09T21:07:10;98467.38;;;18.31;74.83
19576;BME280;41589;51.196;7.074;2022-09-09T21:12:11;98467.38;;;18.31;74.96
19576;BME280;41589;51.196;7.074;2022-09-09T21:17:11;98464.25;;;18.35;75.09
19576;BME280;41589;51.196;7.074;2022-09-09T21:22:11;98468.94;;;18.32;74.91
19576;BME280;41589;51.196;7.074;2022-09-09T21:27:13;98466.13;;;18.27;74.58
19576;BME280;41589;51.196;7.074;2022-09-09T21:32:14;98469.28;;;18.23;74.55
19576;BME280;41589;51.196;7.074;2022-09-09T21:37:30;98471.59;;;18.25;74.23
19576;BME280;41589;51.196;7.074;2022-09-09T21:42:31;98474.44;;;18.25;74.42
19576;BME280;41589;51.196;7.074;2022-09-09T21:47:32;98463.50;;;18.29;74.29
19576;BME280;41589;51.196;7.074;2022-09-09T21:52:32;98466.75;;;18.14;73.93
19576;BME280;41589;51.196;7.074;2022-09-09T21:57:32;98471.16;;;18.15;73.91
19576;BME280;41589;51.196;7.074;2022-09-09T22:02:33;98464.38;;;18.18;74.07
19576;BME280;41589;51.196;7.074;2022-09-09T22:07:37;98481.28;;;18.10;74.01
19576;BME280;41589;51.196;7.074;2022-09-09T22:12:39;98475.63;;;18.05;74.06
19576;BME280;41589;51.196;7.074;2022-09-09T22:17:39;98467.03;;;18.10;74.45
19576;BME280;41589;51.196;7.074;2022-09-09T22:22:40;98459.47;;;18.18;74.01
19576;BME280;41589;51.196;7.074;2022-09-09T22:27:40;98457.91;;;18.17;73.58
19576;BME280;41589;51.196;7.074;2022-09-09T22:32:40;98466.22;;;18.15;73.69
19576;BME280;41589;51.196;7.074;2022-09-09T22:37:41;98463.09;;;18.19;73.48
19576;BME280;41589;51.196;7.074;2022-09-09T22:42:41;98464.88;;;18.22;73.43
19576;BME280;41589;51.196;7.074;2022-09-09T22:47:42;98458.91;;;18.26;73.65
19576;BME280;41589;51.196;7.074;2022-09-09T22:52:42;98461.50;;;18.24;73.40
19576;BME280;41589;51.196;7.074;2022-09-09T22:57:42;98458.13;;;18.25;73.19
19576;BME280;41589;51.196;7.074;2022-09-09T23:02:43;98464.34;;;18.24;73.38
19576;BME280;41589;51.196;7.074;2022-09-09T23:07:43;98467.78;;;18.16;72.91
19576;BME280;41589;51.196;7.074;2022-09-09T23:12:44;98468.88;;;18.08;73.05
19576;BME280;41589;51.196;7.074;2022-09-09T23:17:44;98471.88;;;18.21;73.02
19576;BME280;41589;51.196;7.074;2022-09-09T23:22:45;98481.78;;;18.14;72.68
19576;BME280;41589;51.196;7.074;2022-09-09T23:27:45;98478.69;;;18.12;72.71
19576;BME280;41589;51.196;7.074;2022-09-09T23:32:48;98470.63;;;18.16;72.78
19576;BME280;41589;51.196;7.074;2022-09-09T23:37:48;98464.97;;;18.11;72.58
19576;BME280;41589;51.196;7.074;2022-09-09T23:42:48;98474.03;;;18.09;72.34
19576;BME280;41589;51.196;7.074;2022-09-09T23:47:49;98475.97;;;17.96;72.22
19576;BME280;41589;51.196;7.074;2022-09-09T23:52:49;98476.25;;;17.92;72.55
19576;BME280;41589;51.196;7.074;2022-09-09T23:57:51;98470.28;;;17.96;72.75
